createdAt,value
2019-05-22T00:03:24.665Z,15.00
2019-05-22T00:08:31.383Z,15.00
2019-05-22T00:13:38.643Z,15.00
2019-05-22T00:18:44.098Z,14.90
2019-05-22T00:23:49.648Z,14.90
2019-05-22T00:28:54.807Z,14.90
2019-05-22T00:34:01.210Z,14.90
2019-05-22T00:39:08.657Z,15.00
2019-05-22T00:44:14.661Z,15.00
2019-05-22T00:49:22.600Z,14.90
2019-05-22T00:54:36.927Z,14.90
2019-05-22T00:59:46.583Z,14.80
2019-05-22T01:04:54.982Z,14.80
2019-05-22T01:10:03.584Z,14.70
2019-05-22T01:15:11.329Z,14.70
2019-05-22T01:20:18.109Z,14.60
2019-05-22T01:25:24.798Z,14.60
2019-05-22T01:30:43.947Z,14.50
2019-05-22T01:36:00.196Z,14.50
2019-05-22T01:41:10.753Z,14.40
2019-05-22T01:46:16.674Z,14.40
2019-05-22T01:51:22.835Z,14.30
2019-05-22T01:56:30.316Z,14.30
2019-05-22T02:01:38.021Z,14.30
2019-05-22T02:06:44.977Z,14.10
2019-05-22T02:11:55.022Z,14.10
2019-05-22T02:17:01.601Z,14.10
2019-05-22T02:22:07.098Z,14.00
2019-05-22T02:27:13.674Z,14.00
2019-05-22T02:32:21.042Z,14.00
2019-05-22T02:37:27.694Z,13.90
2019-05-22T02:42:33.523Z,13.80
2019-05-22T02:47:39.491Z,13.80
2019-05-22T02:52:46.125Z,13.80
2019-05-22T02:57:51.525Z,13.80
2019-05-22T03:02:57.524Z,13.80
2019-05-22T03:08:03.513Z,13.80
2019-05-22T03:13:09.277Z,13.80
2019-05-22T03:18:15.237Z,13.80
2019-05-22T03:23:38.392Z,13.80
2019-05-22T03:28:43.995Z,13.80
2019-05-22T03:33:50.137Z,13.80
2019-05-22T03:38:55.897Z,13.80
2019-05-22T03:44:04.345Z,13.80
2019-05-22T03:49:28.073Z,13.80
2019-05-22T03:54:20.259Z,13.90
2019-05-22T03:59:26.217Z,14.00
2019-05-22T04:04:36.716Z,14.00
2019-05-22T04:09:43.452Z,14.00
2019-05-22T04:14:48.793Z,14.10
2019-05-22T04:19:54.948Z,14.20
2019-05-22T04:25:01.123Z,14.30
2019-05-22T04:30:09.460Z,14.40
2019-05-22T04:35:18.219Z,14.50
2019-05-22T04:40:27.541Z,14.60
2019-05-22T04:45:35.270Z,14.70
2019-05-22T04:50:40.908Z,14.70
2019-05-22T04:55:46.925Z,14.80
2019-05-22T05:00:52.032Z,14.90
2019-05-22T05:05:57.907Z,15.00
2019-05-22T05:11:04.362Z,15.10
2019-05-22T05:16:09.940Z,15.20
2019-05-22T05:21:14.935Z,15.40
2019-05-22T05:26:20.872Z,15.50
2019-05-22T05:31:25.911Z,15.60
2019-05-22T05:36:31.795Z,15.70
2019-05-22T05:41:37.099Z,15.80
2019-05-22T05:46:42.266Z,16.00
2019-05-22T05:51:49.481Z,16.10
2019-05-22T05:56:55.723Z,16.10
2019-05-22T06:02:01.778Z,16.30
2019-05-22T06:07:20.106Z,16.50
2019-05-22T06:12:26.006Z,16.70
2019-05-22T06:17:52.033Z,16.90
2019-05-22T06:23:24.178Z,17.10
2019-05-22T06:28:32.304Z,17.30
2019-05-22T06:33:38.967Z,17.50
2019-05-22T06:38:50.573Z,17.60
2019-05-22T06:44:25.435Z,17.70
2019-05-22T06:49:35.971Z,17.80
2019-05-22T06:54:41.112Z,18.00
2019-05-22T07:00:15.238Z,18.30
2019-05-22T07:05:20.937Z,18.30
2019-05-22T07:10:44.667Z,18.50
2019-05-22T07:15:50.616Z,18.60
2019-05-22T07:21:34.115Z,18.90
2019-05-22T07:26:59.755Z,19.40
2019-05-22T07:32:23.921Z,19.80
2019-05-22T07:37:30.696Z,20.10
2019-05-22T07:42:35.918Z,20.30
2019-05-22T07:48:00.718Z,20.40
2019-05-22T07:53:43.632Z,20.80
2019-05-22T07:59:24.756Z,20.90
2019-05-22T08:04:49.333Z,20.90
2019-05-22T08:10:14.177Z,21.00
2019-05-22T08:15:20.880Z,21.10
2019-05-22T08:20:44.985Z,21.20
2019-05-22T08:26:10.063Z,21.50
2019-05-22T08:31:16.255Z,21.60
2019-05-22T08:36:21.461Z,21.80
2019-05-22T08:41:45.290Z,22.00
2019-05-22T08:47:08.543Z,22.10
2019-05-22T08:52:31.931Z,22.20
2019-05-22T08:57:55.855Z,22.50
2019-05-22T09:03:01.661Z,22.70
2019-05-22T09:08:06.662Z,22.70
2019-05-22T09:13:49.604Z,22.90
2019-05-22T09:18:55.143Z,23.00
2019-05-22T09:24:02.645Z,23.30
2019-05-22T09:29:26.178Z,23.10
2019-05-22T09:34:50.472Z,23.20
2019-05-22T09:40:13.739Z,23.60
2019-05-22T09:45:19.745Z,23.70
2019-05-22T09:50:43.622Z,23.80
2019-05-22T09:55:49.317Z,24.10
2019-05-22T10:00:54.526Z,24.10
2019-05-22T10:06:00.265Z,24.30
2019-05-22T10:11:05.529Z,23.90
2019-05-22T10:16:10.949Z,23.40
2019-05-22T10:21:17.139Z,23.40
2019-05-22T10:26:23.255Z,23.90
2019-05-22T10:31:28.626Z,24.40
2019-05-22T10:36:34.737Z,24.10
2019-05-22T10:41:40.133Z,23.90
2019-05-22T10:46:45.423Z,23.60
2019-05-22T10:51:51.729Z,23.70
2019-05-22T10:56:56.967Z,24.00
2019-05-22T11:02:02.112Z,24.70
2019-05-22T11:07:08.001Z,25.10
2019-05-22T11:12:14.147Z,25.20
2019-05-22T11:17:19.284Z,25.30
2019-05-22T11:22:25.375Z,25.30
2019-05-22T11:27:30.313Z,25.00
2019-05-22T11:32:35.924Z,24.80
2019-05-22T11:37:41.323Z,24.70
2019-05-22T11:42:46.966Z,24.90
2019-05-22T11:47:53.696Z,25.00
2019-05-22T11:52:58.947Z,25.00
2019-05-22T11:58:04.372Z,25.20
2019-05-22T12:03:09.640Z,24.50
2019-05-22T12:08:15.947Z,24.30
2019-05-22T12:13:23.615Z,24.60
2019-05-22T12:18:29.550Z,24.90
2019-05-22T12:23:34.802Z,25.10
2019-05-22T12:28:41.123Z,25.80
2019-05-22T12:33:46.665Z,26.00
2019-05-22T12:38:51.986Z,25.80
2019-05-22T12:43:57.249Z,25.80
2019-05-22T12:49:03.369Z,26.30
2019-05-22T12:54:08.575Z,26.00
2019-05-22T12:59:14.374Z,26.40
2019-05-22T13:04:21.195Z,27.00
2019-05-22T13:09:26.204Z,26.50
2019-05-22T13:14:31.979Z,26.30
2019-05-22T13:19:37.563Z,25.90
2019-05-22T13:24:44.353Z,26.00
2019-05-22T13:29:49.910Z,26.60
2019-05-22T13:34:56.607Z,26.10
2019-05-22T13:40:01.775Z,25.90
2019-05-22T13:45:08.042Z,25.50
2019-05-22T13:50:15.721Z,25.50
2019-05-22T13:55:21.135Z,25.90
2019-05-22T14:00:27.019Z,26.00
2019-05-22T14:05:33.487Z,26.10
2019-05-22T14:10:39.349Z,26.40
2019-05-22T14:15:54.726Z,26.30
2019-05-22T14:20:51.079Z,26.20
2019-05-22T14:25:56.307Z,26.10
2019-05-22T14:31:01.743Z,26.10
2019-05-22T14:36:07.061Z,26.30
2019-05-22T14:41:12.298Z,26.30
2019-05-22T14:46:17.485Z,26.20
2019-05-22T14:51:24.911Z,26.20
2019-05-22T14:56:29.949Z,26.30
2019-05-22T15:01:34.982Z,26.30
2019-05-22T15:06:40.954Z,25.90
2019-05-22T15:11:46.135Z,26.10
2019-05-22T15:16:51.043Z,25.90
2019-05-22T15:21:56.086Z,26.00
2019-05-22T15:27:01.859Z,26.20
2019-05-22T15:32:09.046Z,26.10
2019-05-22T15:37:15.532Z,25.80
2019-05-22T15:42:41.432Z,25.60
2019-05-22T15:47:55.488Z,25.40
2019-05-22T15:53:04.099Z,25.00
2019-05-22T15:58:09.495Z,25.10
2019-05-22T16:03:22.870Z,25.00
2019-05-22T16:08:30.776Z,24.80
2019-05-22T16:13:36.157Z,24.90
2019-05-22T16:18:44.484Z,25.10
2019-05-22T16:23:51.440Z,25.20
2019-05-22T16:28:59.189Z,25.50
2019-05-22T16:34:05.495Z,25.70
2019-05-22T16:39:11.928Z,25.60
2019-05-22T16:44:17.354Z,25.70
2019-05-22T16:49:22.322Z,25.60
2019-05-22T16:54:30.727Z,25.60
2019-05-22T16:59:38.677Z,25.60
2019-05-22T17:04:44.671Z,25.50
2019-05-22T17:09:51.732Z,25.50
2019-05-22T17:14:57.799Z,25.10
2019-05-22T17:20:03.663Z,25.00
2019-05-22T17:25:09.225Z,24.80
2019-05-22T17:30:20.425Z,24.90
2019-05-22T17:35:25.438Z,24.80
2019-05-22T17:40:32.270Z,24.70
2019-05-22T17:45:38.851Z,24.50
2019-05-22T17:50:45.572Z,24.30
2019-05-22T17:55:50.900Z,24.20
2019-05-22T18:00:56.801Z,24.00
2019-05-22T18:06:02.183Z,23.70
2019-05-22T18:11:08.877Z,23.40
2019-05-22T18:16:13.927Z,23.20
2019-05-22T18:21:19.059Z,23.20
2019-05-22T18:26:24.045Z,23.10
2019-05-22T18:31:29.008Z,23.10
2019-05-22T18:36:34.023Z,23.00
2019-05-22T18:41:38.959Z,23.00
2019-05-22T18:46:44.385Z,23.00
2019-05-22T18:51:49.552Z,22.90
2019-05-22T18:56:55.207Z,22.80
2019-05-22T19:02:00.393Z,22.60
2019-05-22T19:07:05.679Z,22.20
2019-05-22T19:12:11.006Z,21.70
2019-05-22T19:17:16.300Z,21.30
2019-05-22T19:22:21.995Z,21.00
2019-05-22T19:27:27.350Z,20.50
2019-05-22T19:32:34.030Z,20.10
2019-05-22T19:37:39.125Z,19.70
2019-05-22T19:42:44.805Z,19.40
2019-05-22T19:47:52.577Z,19.20
2019-05-22T19:52:58.256Z,19.00
2019-05-22T19:58:04.305Z,18.80
2019-05-22T20:03:09.690Z,18.60
2019-05-22T20:08:15.562Z,18.40
2019-05-22T20:13:22.561Z,18.20
2019-05-22T20:18:27.785Z,18.00
2019-05-22T20:23:36.489Z,17.90
2019-05-22T20:28:41.211Z,17.70
2019-05-22T20:33:46.709Z,17.40
2019-05-22T20:38:55.032Z,17.40
2019-05-22T20:44:01.561Z,17.20
2019-05-22T20:49:09.453Z,17.10
2019-05-22T20:54:15.379Z,16.90
2019-05-22T20:59:21.895Z,16.90
2019-05-22T21:04:27.701Z,16.80
2019-05-22T21:09:34.595Z,16.70
2019-05-22T21:14:39.797Z,16.70
2019-05-22T21:19:46.393Z,16.50
2019-05-22T21:24:52.283Z,16.40
2019-05-22T21:29:58.116Z,16.30
2019-05-22T21:35:04.563Z,16.30
2019-05-22T21:40:11.183Z,16.20
2019-05-22T21:45:16.645Z,16.20
2019-05-22T21:50:22.796Z,16.10
2019-05-22T21:55:29.633Z,16.00
2019-05-22T22:00:48.047Z,16.00
2019-05-22T22:05:54.716Z,15.90
2019-05-22T22:11:01.462Z,15.80
2019-05-22T22:16:06.824Z,15.70
2019-05-22T22:21:13.493Z,15.70
2019-05-22T22:26:25.863Z,15.60
2019-05-22T22:31:27.713Z,15.60
2019-05-22T22:36:33.399Z,15.60
2019-05-22T22:41:40.178Z,15.50
2019-05-22T22:46:50.534Z,15.50
2019-05-22T22:51:55.915Z,15.50
2019-05-22T22:57:01.510Z,15.50
2019-05-22T23:02:09.439Z,15.30
2019-05-22T23:07:16.522Z,15.30
2019-05-22T23:12:22.709Z,15.20
2019-05-22T23:17:30.440Z,15.20
2019-05-22T23:22:35.032Z,15.20
2019-05-22T23:27:39.988Z,15.20
2019-05-22T23:32:45.915Z,15.10
2019-05-22T23:37:50.824Z,15.10
2019-05-22T23:42:57.458Z,15.10
2019-05-22T23:48:12.166Z,15.00
2019-05-22T23:53:19.007Z,15.10
2019-05-22T23:58:26.729Z,15.00
